»·PEaware :: N3141P KSAN-KTRM

N3141P :: KSAN-KTRM

FLIGHT INFORMATION

Flight Status: Arrived
Operator: Privately registered:
United States
More flights under this callsign
Pilot: Andrew N. (12823)
Aircraft: PILATUS PC-12 EAGLE
(PC12)
More flights by this aircraft type
Origin: KSAN San Diego Intl-Lindbergh
United States
Destination: KTRM Desert Resorts Regl
United States
More flights between these airports :: More routes between these airports
Route: +
File this flight plan on PilotEdge
Remarks:
Altitude:
(Current/Filed)
7,500ft
Speed:
(Current/Filed)
0kts
Departed: 29-Sep-18 05:10 PM
Arrived: 29-Sep-18 05:40 PM
Distance/Time
Traveled:
92nm/0:30
Distance/Time
To Go:
Arrived

Flight Plot

Page will automatically refresh every two minutes.

Flight plan parsing failed; only flown route is shown


Map Options




Map Legend


Flown Route
Filed Route
Departure Airport
Arrival Airport
Navaid (VOR, NDB)
Fix

Horizontal Profiles

Position Reports

Time Latitude Longitude Heading Altitude Ground
Speed
29-Sep-18 17:03 32.732091 -117.176568 194 19ft 0kts
29-Sep-18 17:04 32.732091 -117.176568 194 19ft 0kts
29-Sep-18 17:05 32.732091 -117.176568 194 19ft 0kts
29-Sep-18 17:06 32.732091 -117.176568 194 19ft 0kts
29-Sep-18 17:07 32.732091 -117.176568 194 19ft 0kts
29-Sep-18 17:08 32.732091 -117.176568 194 19ft 0kts
29-Sep-18 17:09 32.732091 -117.176568 194 19ft 0kts
29-Sep-18 17:10 32.732019 -117.176591 195 19ft 0kts
29-Sep-18 17:11 32.730906 -117.175461 150 18ft 0kts
29-Sep-18 17:12 32.730934 -117.178850 286 19ft 77kts
29-Sep-18 17:13 32.743294 -117.214760 300 1412ft 139kts
29-Sep-18 17:14 32.764042 -117.257404 304 3107ft 156kts
29-Sep-18 17:15 32.785765 -117.295304 301 5446ft 137kts
29-Sep-18 17:16 32.807858 -117.331760 302 7362ft 142kts
29-Sep-18 17:17 32.830277 -117.366711 302 7479ft 129kts
29-Sep-18 17:18 32.854185 -117.396634 352 7491ft 136kts
29-Sep-18 17:19 32.882738 -117.351278 64 7490ft 230kts
29-Sep-18 17:20 32.912097 -117.276608 63 7483ft 262kts
29-Sep-18 17:21 32.943374 -117.197448 64 7485ft 267kts
29-Sep-18 17:22 32.975160 -117.116854 64 7489ft 269kts
29-Sep-18 17:23 33.006859 -117.036328 65 7491ft 270kts
29-Sep-18 17:24 33.038703 -116.955240 65 7495ft 271kts
29-Sep-18 17:25 33.070517 -116.874042 66 7500ft 271kts
29-Sep-18 17:26 33.101558 -116.792261 76 7503ft 271kts
29-Sep-18 17:27 33.120576 -116.705594 78 7498ft 271kts
29-Sep-18 17:28 33.139589 -116.619138 77 7497ft 271kts
29-Sep-18 17:29 33.158709 -116.532093 78 7481ft 271kts
29-Sep-18 17:30 33.176824 -116.448870 78 6865ft 282kts
29-Sep-18 17:31 33.196058 -116.361944 78 5859ft 268kts
29-Sep-18 17:32 33.214407 -116.277482 79 4918ft 260kts
29-Sep-18 17:33 33.232592 -116.193380 79 3909ft 260kts
29-Sep-18 17:34 33.250269 -116.111626 73 2865ft 250kts
29-Sep-18 17:35 33.295902 -116.047591 52 2437ft 254kts
29-Sep-18 17:36 33.341868 -115.983924 46 2428ft 255kts
29-Sep-18 17:37 33.394528 -115.994564 315 2190ft 266kts
29-Sep-18 17:38 33.458264 -116.060624 317 1434ft 256kts
29-Sep-18 17:39 33.512376 -116.115679 318 1428ft 254kts
29-Sep-18 17:40 33.573672 -116.139981 357 730ft 229kts
29-Sep-18 17:41 33.613687 -116.156367 0 -24ft 150kts
29-Sep-18 17:42 33.629210 -116.157734 178 -106ft 16kts
29-Sep-18 17:43 33.623426 -116.157727 176 -106ft 23kts
29-Sep-18 17:44 33.621203 -116.158758 158 -106ft 0kts
29-Sep-18 17:45 33.621203 -116.158758 158 -106ft 0kts
29-Sep-18 17:46 33.621203 -116.158758 158 -106ft 0kts
29-Sep-18 17:47 33.620842 -116.158627 155 -106ft 10kts
29-Sep-18 17:48 33.616524 -116.157728 177 -106ft 17kts
29-Sep-18 17:49 33.625244 -116.156383 0 -106ft 125kts
29-Sep-18 17:50 33.661544 -116.149292 62 1337ft 135kts
29-Sep-18 17:51 33.664936 -116.101669 96 2850ft 171kts
29-Sep-18 17:52 33.664810 -116.035572 94 3431ft 228kts
29-Sep-18 17:53 33.664792 -115.955877 94 3431ft 245kts
29-Sep-18 17:54 33.664677 -115.873850 94 3427ft 247kts
29-Sep-18 17:55 33.664531 -115.791318 96 2434ft 234kts
29-Sep-18 17:56 33.661240 -115.732477 86 1964ft 125kts

Navigation Log

Ident Type
Flight plan parsing failed, navigation log unavailable